Ontario, CA (91764)

5:19 PM PDT on October 24, 2014 (GMT -0700)
Pennhill Estates | Change Station
CLOSE
Current Station
Personal Weather Station
Location: Upland, CA
Elevation: 1539 ft
Nearby Weather Stations

Elev 1539 ft 34.13 °N, 117.62 °W | Updated 2 minutes ago

Clear
Clear
84.4 °F
Feels Like 81 °F
N
3.0
Wind Variable Wind from SW
Gusts 6.0 mph

Today
High -- | Low -- °F
--% Chance of Precip.
Yesterday
High -- | Low -- °F
Precip. -- in
7:03 AM 6:05 PM
New Moon, 1% visible
Pressure 29.90 in
Visibility 10.0 miles
Clouds Clear
Heat Index 81 °F
Dew Point 36 °F
Humidity 18%
Rainfall 0.00 in
Snow Depth Not available.
UV 1 out of 12
Pollen 4.10 out of 12
Ozone Good
PM2.5 Moderate
Flu Activity Sporadic
METAR KONT 242353Z 25011KT 10SM CLR 31/00 A2994 RMK AO2 SLP124 T03060000 10339 20278 55001

More Conditions Fewer Conditions

Pressure 29.90 in
Visibility 10.0 miles
Clouds Clear
Heat Index 81 °F
Dew Point 36 °F
Humidity 18%
Rainfall 0.00 in
Snow Depth Not available.
UV 1 out of 12
Pollen 4.10 out of 12
Ozone Good
PM2.5 Moderate
Flu Activity Sporadic
METAR KONT 242353Z 25011KT 10SM CLR 31/00 A2994 RMK AO2 SLP124 T03060000 10339 20278 55001

More Conditions Fewer Conditions

10-Day Weather Forecast

Almanac

Astronomy

Oct. 24, 2014 Rise Set
Actual Time 7:03 AM PDT 6:05 PM PDT
Civil Twilight 6:37 AM PDT 6:31 PM PDT
Nautical Twilight 6:08 AM PDT 7:00 PM PDT
Astronomical Twilight 5:39 AM PDT 7:29 PM PDT
Moon 7:45 AM PDT (10/24) 6:51 PM PDT (10/24)
Length of Visible Light 11h 53m
Length of Day
11h 02m
Tomorrow will be 1m 56s shorter.
New Moon, 1% of the Moon is Illuminated
Today
New Moon
Oct 30
First Quarter
Nov 6
Full
Nov 14
Last Quarter
Nov 22
New

Today's Extremes

State Highs State Lows

Community

WunderPhotos

Upload Photos

1,764,720 photos uploaded!

WunderBlogs® & News

Nearby

Air Quality

  Air Quality AQ Index Pollutant
Yesterday Good
PM10
Yesterday Moderate
OZONE
Current Moderate
PM2.5
Current Good
OZONE
Saturday Good
PM10
Saturday Good
OZONE
Saturday Good
CO
Saturday Good
NO2

Snow Depth

Station Depth Elevation
Leavitt Meadows 0 in 7200 ft
Summit Meadow 0 in 9122 ft
Ward Creek #3 12 in 6750 ft
Adin Mountain 0 in 6200 ft

Earthquake Activity

City Distance Mag. Time & Date
Brea, California 19 miles 2.9 3:35 PM PDT
2014-10-23
Brea, California 18 miles 2.8 3:34 PM PDT
2014-10-23
Corona, California 14 miles 2.5 1:09 PM PDT
2014-10-23
Minimum magnitude displayed is 2.5.

Coastal Water Temperatures

Place Temperature
No Stations Reporting

Nearby Weather Stations